TAF LFOT
LFOT 072300Z 0800/0824 22010G20KT 9999 BKN020 BECMG 0800/0803 CAVOK BECMG 0811/0813 28006KT SCT025 PROB30 TEMPO 0814/0818 -SHRA BKN030TCU=
METAR LFOT
LFOT 080400Z AUTO 21008KT 9999 FEW030 SCT044 BKN230 05/03 Q0999 NOSIG=
LFOT 080330Z AUTO 21008KT 9999 FEW047 05/03 Q0999 NOSIG=
LFOT 080300Z AUTO 20007KT CAVOK 05/03 Q0999 NOSIG=
LFOT 080230Z AUTO 19007KT CAVOK 05/03 Q0999 NOSIG=
LFOT 080200Z AUTO 21007KT CAVOK 05/03 Q0999 NOSIG=
WC LFOT
WS LFOT
WV LFOT